sensor_id;sensor_type;location;lat;lon;timestamp;temperature;humidity
20946;DHT22;10632;51.276;7.116;2024-02-23T00:02:15;5.30;99.90
20946;DHT22;10632;51.276;7.116;2024-02-23T00:04:42;5.30;99.90
20946;DHT22;10632;51.276;7.116;2024-02-23T00:07:10;5.20;99.90
20946;DHT22;10632;51.276;7.116;2024-02-23T00:09:37;5.20;99.90
20946;DHT22;10632;51.276;7.116;2024-02-23T00:12:05;5.20;99.90
20946;DHT22;10632;51.276;7.116;2024-02-23T00:14:34;5.20;99.90
20946;DHT22;10632;51.276;7.116;2024-02-23T00:17:03;5.10;99.90
20946;DHT22;10632;51.276;7.116;2024-02-23T00:19:31;5.10;99.90
20946;DHT22;10632;51.276;7.116;2024-02-23T00:21:59;5.10;99.90
20946;DHT22;10632;51.276;7.116;2024-02-23T00:24:26;5.10;99.90
20946;DHT22;10632;51.276;7.116;2024-02-23T00:26:53;5.10;99.90
20946;DHT22;10632;51.276;7.116;2024-02-23T00:29:20;5.10;99.90
20946;DHT22;10632;51.276;7.116;2024-02-23T00:31:47;5.10;99.90
20946;DHT22;10632;51.276;7.116;2024-02-23T00:34:16;5.10;99.90
20946;DHT22;10632;51.276;7.116;2024-02-23T00:36:43;5.00;99.90
20946;DHT22;10632;51.276;7.116;2024-02-23T00:39:12;4.90;99.90
20946;DHT22;10632;51.276;7.116;2024-02-23T00:41:39;4.90;99.90
20946;DHT22;10632;51.276;7.116;2024-02-23T00:44:06;4.80;99.90
20946;DHT22;10632;51.276;7.116;2024-02-23T00:46:33;4.80;99.90
20946;DHT22;10632;51.276;7.116;2024-02-23T00:49:03;4.70;99.90
20946;DHT22;10632;51.276;7.116;2024-02-23T00:51:31;4.70;99.90
20946;DHT22;10632;51.276;7.116;2024-02-23T00:54:01;4.60;99.90
20946;DHT22;10632;51.276;7.116;2024-02-23T00:56:28;4.60;99.90
20946;DHT22;10632;51.276;7.116;2024-02-23T00:58:54;4.50;99.90
20946;DHT22;10632;51.276;7.116;2024-02-23T01:01:21;4.50;99.90
20946;DHT22;10632;51.276;7.116;2024-02-23T01:03:48;4.50;99.90
20946;DHT22;10632;51.276;7.116;2024-02-23T01:06:15;4.50;99.90
20946;DHT22;10632;51.276;7.116;2024-02-23T01:08:44;4.50;99.90
20946;DHT22;10632;51.276;7.116;2024-02-23T01:11:11;4.50;99.90
20946;DHT22;10632;51.276;7.116;2024-02-23T01:13:38;4.50;99.90
20946;DHT22;10632;51.276;7.116;2024-02-23T01:16:05;4.50;99.90
20946;DHT22;10632;51.276;7.116;2024-02-23T01:18:33;4.50;99.90
20946;DHT22;10632;51.276;7.116;2024-02-23T01:21:00;4.50;99.90
20946;DHT22;10632;51.276;7.116;2024-02-23T01:23:27;4.50;99.90
20946;DHT22;10632;51.276;7.116;2024-02-23T01:25:55;4.50;99.90
20946;DHT22;10632;51.276;7.116;2024-02-23T01:28:24;4.50;99.90
20946;DHT22;10632;51.276;7.116;2024-02-23T01:30:51;4.50;99.90
20946;DHT22;10632;51.276;7.116;2024-02-23T01:33:21;4.50;99.90
20946;DHT22;10632;51.276;7.116;2024-02-23T01:35:48;4.60;99.90
20946;DHT22;10632;51.276;7.116;2024-02-23T01:38:14;4.50;99.90
20946;DHT22;10632;51.276;7.116;2024-02-23T01:40:44;4.60;99.90
20946;DHT22;10632;51.276;7.116;2024-02-23T01:43:13;4.50;99.90
20946;DHT22;10632;51.276;7.116;2024-02-23T01:45:40;4.60;99.90
20946;DHT22;10632;51.276;7.116;2024-02-23T01:48:07;4.60;99.90
20946;DHT22;10632;51.276;7.116;2024-02-23T01:50:35;4.50;99.90
20946;DHT22;10632;51.276;7.116;2024-02-23T01:53:06;4.60;99.90
20946;DHT22;10632;51.276;7.116;2024-02-23T01:55:33;4.60;99.90
20946;DHT22;10632;51.276;7.116;2024-02-23T01:58:01;4.60;99.90
20946;DHT22;10632;51.276;7.116;2024-02-23T02:00:34;4.60;99.90
20946;DHT22;10632;51.276;7.116;2024-02-23T02:03:02;4.60;99.90
20946;DHT22;10632;51.276;7.116;2024-02-23T02:05:29;4.70;99.90
20946;DHT22;10632;51.276;7.116;2024-02-23T02:07:56;4.70;99.90
20946;DHT22;10632;51.276;7.116;2024-02-23T02:10:25;4.60;99.90
20946;DHT22;10632;51.276;7.116;2024-02-23T02:12:52;4.60;99.90
20946;DHT22;10632;51.276;7.116;2024-02-23T02:15:19;4.60;99.90
20946;DHT22;10632;51.276;7.116;2024-02-23T02:17:49;4.60;99.90
20946;DHT22;10632;51.276;7.116;2024-02-23T02:20:18;4.60;99.90
20946;DHT22;10632;51.276;7.116;2024-02-23T02:22:50;4.60;99.90
20946;DHT22;10632;51.276;7.116;2024-02-23T02:25:19;4.60;99.90
20946;DHT22;10632;51.276;7.116;2024-02-23T02:27:45;4.50;99.90
20946;DHT22;10632;51.276;7.116;2024-02-23T02:30:13;4.60;99.90
20946;DHT22;10632;51.276;7.116;2024-02-23T02:32:40;4.50;99.90
20946;DHT22;10632;51.276;7.116;2024-02-23T02:35:10;4.50;99.90
20946;DHT22;10632;51.276;7.116;2024-02-23T02:37:38;4.50;99.90
20946;DHT22;10632;51.276;7.116;2024-02-23T02:40:06;4.50;99.90
20946;DHT22;10632;51.276;7.116;2024-02-23T02:42:33;4.50;99.90
20946;DHT22;10632;51.276;7.116;2024-02-23T02:45:00;4.50;99.90
20946;DHT22;10632;51.276;7.116;2024-02-23T02:47:28;4.50;99.90
20946;DHT22;10632;51.276;7.116;2024-02-23T02:49:58;4.50;99.90
20946;DHT22;10632;51.276;7.116;2024-02-23T02:52:26;4.40;99.90
20946;DHT22;10632;51.276;7.116;2024-02-23T02:54:54;4.40;99.90
20946;DHT22;10632;51.276;7.116;2024-02-23T02:57:23;4.40;99.90
20946;DHT22;10632;51.276;7.116;2024-02-23T02:59:51;4.40;99.90
20946;DHT22;10632;51.276;7.116;2024-02-23T03:02:18;4.40;99.90
20946;DHT22;10632;51.276;7.116;2024-02-23T03:04:48;4.40;99.90
20946;DHT22;10632;51.276;7.116;2024-02-23T03:07:14;4.40;99.90
20946;DHT22;10632;51.276;7.116;2024-02-23T03:09:43;4.40;99.90
20946;DHT22;10632;51.276;7.116;2024-02-23T03:12:10;4.40;99.90
20946;DHT22;10632;51.276;7.116;2024-02-23T03:14:37;4.40;99.90
20946;DHT22;10632;51.276;7.116;2024-02-23T03:17:06;4.40;99.90
20946;DHT22;10632;51.276;7.116;2024-02-23T03:19:33;4.40;99.90
20946;DHT22;10632;51.276;7.116;2024-02-23T03:22:06;4.40;99.90
20946;DHT22;10632;51.276;7.116;2024-02-23T03:24:33;4.40;99.90
20946;DHT22;10632;51.276;7.116;2024-02-23T03:27:02;4.40;99.90
20946;DHT22;10632;51.276;7.116;2024-02-23T03:29:29;4.30;99.90
20946;DHT22;10632;51.276;7.116;2024-02-23T03:31:56;4.30;99.90
20946;DHT22;10632;51.276;7.116;2024-02-23T03:34:23;4.30;99.90
20946;DHT22;10632;51.276;7.116;2024-02-23T03:36:55;4.30;99.90
20946;DHT22;10632;51.276;7.116;2024-02-23T03:39:23;4.30;99.90
20946;DHT22;10632;51.276;7.116;2024-02-23T03:41:50;4.30;99.90
20946;DHT22;10632;51.276;7.116;2024-02-23T03:44:19;4.40;99.90
20946;DHT22;10632;51.276;7.116;2024-02-23T03:46:46;4.40;99.90
20946;DHT22;10632;51.276;7.116;2024-02-23T03:49:13;4.40;99.90
20946;DHT22;10632;51.276;7.116;2024-02-23T03:51:39;4.40;99.90
20946;DHT22;10632;51.276;7.116;2024-02-23T03:54:06;4.30;99.90
20946;DHT22;10632;51.276;7.116;2024-02-23T03:56:38;4.30;99.90
20946;DHT22;10632;51.276;7.116;2024-02-23T03:59:05;4.30;99.90
20946;DHT22;10632;51.276;7.116;2024-02-23T04:01:36;4.30;99.90
20946;DHT22;10632;51.276;7.116;2024-02-23T04:04:03;4.30;99.90
20946;DHT22;10632;51.276;7.116;2024-02-23T04:06:31;4.30;99.90
20946;DHT22;10632;51.276;7.116;2024-02-23T04:08:58;4.30;99.90
20946;DHT22;10632;51.276;7.116;2024-02-23T04:11:30;4.30;99.90
20946;DHT22;10632;51.276;7.116;2024-02-23T04:13:57;4.30;99.90
20946;DHT22;10632;51.276;7.116;2024-02-23T04:16:26;4.30;99.90
20946;DHT22;10632;51.276;7.116;2024-02-23T04:18:55;4.30;99.90
20946;DHT22;10632;51.276;7.116;2024-02-23T04:21:22;4.30;99.90
20946;DHT22;10632;51.276;7.116;2024-02-23T04:23:48;4.30;99.90
20946;DHT22;10632;51.276;7.116;2024-02-23T04:26:15;4.30;99.90
20946;DHT22;10632;51.276;7.116;2024-02-23T04:28:42;4.30;99.90
20946;DHT22;10632;51.276;7.116;2024-02-23T04:31:10;4.30;99.90
20946;DHT22;10632;51.276;7.116;2024-02-23T04:33:37;4.30;99.90
20946;DHT22;10632;51.276;7.116;2024-02-23T04:36:06;4.30;99.90
20946;DHT22;10632;51.276;7.116;2024-02-23T04:38:33;4.30;99.90
20946;DHT22;10632;51.276;7.116;2024-02-23T04:41:03;4.30;99.90
20946;DHT22;10632;51.276;7.116;2024-02-23T04:43:30;4.30;99.90
20946;DHT22;10632;51.276;7.116;2024-02-23T04:45:57;4.40;99.90
20946;DHT22;10632;51.276;7.116;2024-02-23T04:48:24;4.30;99.90
20946;DHT22;10632;51.276;7.116;2024-02-23T04:50:51;4.30;99.90
20946;DHT22;10632;51.276;7.116;2024-02-23T04:53:19;4.40;99.90
20946;DHT22;10632;51.276;7.116;2024-02-23T04:55:46;4.30;99.90
20946;DHT22;10632;51.276;7.116;2024-02-23T04:58:13;4.30;99.90
20946;DHT22;10632;51.276;7.116;2024-02-23T05:00:40;4.30;99.90
20946;DHT22;10632;51.276;7.116;2024-02-23T05:03:07;4.40;99.90
20946;DHT22;10632;51.276;7.116;2024-02-23T05:05:35;4.40;99.90
20946;DHT22;10632;51.276;7.116;2024-02-23T05:10:38;4.40;99.90
20946;DHT22;10632;51.276;7.116;2024-02-23T05:13:15;4.40;99.90
20946;DHT22;10632;51.276;7.116;2024-02-23T05:15:54;4.40;99.90
20946;DHT22;10632;51.276;7.116;2024-02-23T05:18:25;4.40;99.90
20946;DHT22;10632;51.276;7.116;2024-02-23T05:20:55;4.40;99.90
20946;DHT22;10632;51.276;7.116;2024-02-23T05:23:27;4.30;99.90
20946;DHT22;10632;51.276;7.116;2024-02-23T05:26:01;4.30;99.90
20946;DHT22;10632;51.276;7.116;2024-02-23T05:28:35;4.30;99.90
20946;DHT22;10632;51.276;7.116;2024-02-23T05:31:09;4.40;99.90
20946;DHT22;10632;51.276;7.116;2024-02-23T05:33:38;4.30;99.90
20946;DHT22;10632;51.276;7.116;2024-02-23T05:36:08;4.30;99.90
20946;DHT22;10632;51.276;7.116;2024-02-23T05:38:36;4.30;99.90
20946;DHT22;10632;51.276;7.116;2024-02-23T05:41:14;4.20;99.90
20946;DHT22;10632;51.276;7.116;2024-02-23T05:44:03;4.20;99.90
20946;DHT22;10632;51.276;7.116;2024-02-23T05:46:43;4.10;99.90
20946;DHT22;10632;51.276;7.116;2024-02-23T05:49:17;4.20;99.90
20946;DHT22;10632;51.276;7.116;2024-02-23T05:51:50;4.20;99.90
20946;DHT22;10632;51.276;7.116;2024-02-23T05:54:31;4.30;99.90
20946;DHT22;10632;51.276;7.116;2024-02-23T05:59:44;4.20;99.90
20946;DHT22;10632;51.276;7.116;2024-02-23T06:02:14;4.20;99.90
20946;DHT22;10632;51.276;7.116;2024-02-23T06:04:52;4.20;99.90
20946;DHT22;10632;51.276;7.116;2024-02-23T06:07:24;4.10;99.90
20946;DHT22;10632;51.276;7.116;2024-02-23T06:09:57;4.10;99.90
20946;DHT22;10632;51.276;7.116;2024-02-23T06:12:31;4.10;99.90
20946;DHT22;10632;51.276;7.116;2024-02-23T06:14:58;4.10;99.90
20946;DHT22;10632;51.276;7.116;2024-02-23T06:17:38;4.10;99.90
20946;DHT22;10632;51.276;7.116;2024-02-23T06:20:16;4.10;99.90
20946;DHT22;10632;51.276;7.116;2024-02-23T06:22:54;4.20;99.90
20946;DHT22;10632;51.276;7.116;2024-02-23T06:25:28;4.20;99.90
20946;DHT22;10632;51.276;7.116;2024-02-23T06:30:47;4.20;99.90
20946;DHT22;10632;51.276;7.116;2024-02-23T06:33:16;4.20;99.90
20946;DHT22;10632;51.276;7.116;2024-02-23T06:35:43;4.20;99.90
20946;DHT22;10632;51.276;7.116;2024-02-23T06:38:15;4.20;99.90
20946;DHT22;10632;51.276;7.116;2024-02-23T06:40:52;4.20;99.90
20946;DHT22;10632;51.276;7.116;2024-02-23T06:43:25;4.30;99.90
20946;DHT22;10632;51.276;7.116;2024-02-23T06:45:52;4.20;99.90
20946;DHT22;10632;51.276;7.116;2024-02-23T06:48:19;4.20;99.90
20946;DHT22;10632;51.276;7.116;2024-02-23T06:50:50;4.20;99.90
20946;DHT22;10632;51.276;7.116;2024-02-23T06:53:17;4.20;99.90
20946;DHT22;10632;51.276;7.116;2024-02-23T06:55:44;4.20;99.90
20946;DHT22;10632;51.276;7.116;2024-02-23T06:58:16;4.30;99.90
20946;DHT22;10632;51.276;7.116;2024-02-23T07:00:46;4.30;99.90
20946;DHT22;10632;51.276;7.116;2024-02-23T07:03:14;4.30;99.90
20946;DHT22;10632;51.276;7.116;2024-02-23T07:05:42;4.20;99.90
20946;DHT22;10632;51.276;7.116;2024-02-23T07:08:09;4.20;99.90
20946;DHT22;10632;51.276;7.116;2024-02-23T07:10:39;4.20;99.90
20946;DHT22;10632;51.276;7.116;2024-02-23T07:13:09;4.20;99.90
20946;DHT22;10632;51.276;7.116;2024-02-23T07:15:39;4.20;99.90
20946;DHT22;10632;51.276;7.116;2024-02-23T07:18:08;4.20;99.90
20946;DHT22;10632;51.276;7.116;2024-02-23T07:20:40;4.10;99.90
20946;DHT22;10632;51.276;7.116;2024-02-23T07:23:09;4.10;99.90
20946;DHT22;10632;51.276;7.116;2024-02-23T07:25:41;4.10;99.90
20946;DHT22;10632;51.276;7.116;2024-02-23T07:28:11;4.10;99.90
20946;DHT22;10632;51.276;7.116;2024-02-23T07:30:46;4.20;99.90
20946;DHT22;10632;51.276;7.116;2024-02-23T07:33:19;4.20;99.90
20946;DHT22;10632;51.276;7.116;2024-02-23T07:35:51;4.20;99.90
20946;DHT22;10632;51.276;7.116;2024-02-23T07:38:28;4.30;99.90
20946;DHT22;10632;51.276;7.116;2024-02-23T07:40:57;4.30;99.90
20946;DHT22;10632;51.276;7.116;2024-02-23T07:43:36;4.30;99.90
20946;DHT22;10632;51.276;7.116;2024-02-23T07:46:04;4.30;99.90
20946;DHT22;10632;51.276;7.116;2024-02-23T07:48:36;4.40;99.90
20946;DHT22;10632;51.276;7.116;2024-02-23T07:51:06;4.40;99.90
20946;DHT22;10632;51.276;7.116;2024-02-23T07:53:35;4.40;99.90
20946;DHT22;10632;51.276;7.116;2024-02-23T07:56:02;4.40;99.90
20946;DHT22;10632;51.276;7.116;2024-02-23T07:58:38;4.40;99.90
20946;DHT22;10632;51.276;7.116;2024-02-23T08:01:08;4.50;99.90
20946;DHT22;10632;51.276;7.116;2024-02-23T08:03:37;4.50;99.90
20946;DHT22;10632;51.276;7.116;2024-02-23T08:06:09;4.50;99.90
20946;DHT22;10632;51.276;7.116;2024-02-23T08:08:39;4.70;99.90
20946;DHT22;10632;51.276;7.116;2024-02-23T08:11:06;4.70;99.90
20946;DHT22;10632;51.276;7.116;2024-02-23T08:13:34;4.90;99.90
20946;DHT22;10632;51.276;7.116;2024-02-23T08:16:01;4.90;99.90
20946;DHT22;10632;51.276;7.116;2024-02-23T08:18:29;4.80;99.90
20946;DHT22;10632;51.276;7.116;2024-02-23T08:21:04;4.80;99.90
20946;DHT22;10632;51.276;7.116;2024-02-23T08:23:42;4.80;99.90
20946;DHT22;10632;51.276;7.116;2024-02-23T08:26:14;4.90;99.90
20946;DHT22;10632;51.276;7.116;2024-02-23T08:28:45;5.00;99.90
20946;DHT22;10632;51.276;7.116;2024-02-23T08:31:12;5.20;99.90
20946;DHT22;10632;51.276;7.116;2024-02-23T08:33:45;5.30;99.90
20946;DHT22;10632;51.276;7.116;2024-02-23T08:36:14;5.30;99.90
20946;DHT22;10632;51.276;7.116;2024-02-23T08:38:44;5.40;99.90
20946;DHT22;10632;51.276;7.116;2024-02-23T08:41:13;5.50;99.90
20946;DHT22;10632;51.276;7.116;2024-02-23T08:43:42;5.50;99.90
20946;DHT22;10632;51.276;7.116;2024-02-23T08:46:09;5.50;99.90
20946;DHT22;10632;51.276;7.116;2024-02-23T08:48:36;5.50;99.90
20946;DHT22;10632;51.276;7.116;2024-02-23T08:51:03;5.60;99.90
20946;DHT22;10632;51.276;7.116;2024-02-23T08:53:32;5.70;99.90
20946;DHT22;10632;51.276;7.116;2024-02-23T08:56:00;5.70;99.90
20946;DHT22;10632;51.276;7.116;2024-02-23T08:58:27;5.80;99.90
20946;DHT22;10632;51.276;7.116;2024-02-23T09:00:54;5.80;99.90
20946;DHT22;10632;51.276;7.116;2024-02-23T09:03:21;5.80;99.90
20946;DHT22;10632;51.276;7.116;2024-02-23T09:05:48;5.70;99.90
20946;DHT22;10632;51.276;7.116;2024-02-23T09:08:15;5.80;99.90
20946;DHT22;10632;51.276;7.116;2024-02-23T09:10:43;5.80;99.90
20946;DHT22;10632;51.276;7.116;2024-02-23T09:13:11;5.90;99.90
20946;DHT22;10632;51.276;7.116;2024-02-23T09:15:38;5.90;99.90
20946;DHT22;10632;51.276;7.116;2024-02-23T09:18:07;5.90;99.90
20946;DHT22;10632;51.276;7.116;2024-02-23T09:20:34;5.80;99.90
20946;DHT22;10632;51.276;7.116;2024-02-23T09:23:01;5.80;99.90
20946;DHT22;10632;51.276;7.116;2024-02-23T09:25:28;5.80;99.90
20946;DHT22;10632;51.276;7.116;2024-02-23T09:27:58;5.80;99.90
20946;DHT22;10632;51.276;7.116;2024-02-23T09:30:25;5.80;99.90
20946;DHT22;10632;51.276;7.116;2024-02-23T09:32:52;5.80;99.90
20946;DHT22;10632;51.276;7.116;2024-02-23T09:35:22;5.90;99.90
20946;DHT22;10632;51.276;7.116;2024-02-23T09:37:52;5.90;99.90
20946;DHT22;10632;51.276;7.116;2024-02-23T09:40:19;5.90;99.90
20946;DHT22;10632;51.276;7.116;2024-02-23T09:42:55;5.90;99.90
20946;DHT22;10632;51.276;7.116;2024-02-23T09:45:24;6.00;99.90
20946;DHT22;10632;51.276;7.116;2024-02-23T09:47:52;6.00;99.90
20946;DHT22;10632;51.276;7.116;2024-02-23T09:50:21;6.10;99.90
20946;DHT22;10632;51.276;7.116;2024-02-23T09:52:48;6.20;99.90
20946;DHT22;10632;51.276;7.116;2024-02-23T09:55:16;6.20;99.90
20946;DHT22;10632;51.276;7.116;2024-02-23T09:57:49;6.30;99.90
20946;DHT22;10632;51.276;7.116;2024-02-23T10:00:20;6.30;99.90
20946;DHT22;10632;51.276;7.116;2024-02-23T10:02:48;6.40;99.90
20946;DHT22;10632;51.276;7.116;2024-02-23T10:05:16;6.40;99.90
20946;DHT22;10632;51.276;7.116;2024-02-23T10:07:44;6.50;99.90
20946;DHT22;10632;51.276;7.116;2024-02-23T10:10:12;6.60;99.90
20946;DHT22;10632;51.276;7.116;2024-02-23T10:12:39;6.50;99.90
20946;DHT22;10632;51.276;7.116;2024-02-23T10:15:07;6.50;99.90
20946;DHT22;10632;51.276;7.116;2024-02-23T10:17:34;6.50;99.90
20946;DHT22;10632;51.276;7.116;2024-02-23T10:20:04;6.50;99.90
20946;DHT22;10632;51.276;7.116;2024-02-23T10:22:31;6.40;99.90
20946;DHT22;10632;51.276;7.116;2024-02-23T10:24:59;6.40;99.90
20946;DHT22;10632;51.276;7.116;2024-02-23T10:27:34;6.40;99.90
20946;DHT22;10632;51.276;7.116;2024-02-23T10:30:00;6.30;99.90
20946;DHT22;10632;51.276;7.116;2024-02-23T10:32:29;6.30;99.90
20946;DHT22;10632;51.276;7.116;2024-02-23T10:35:00;6.40;99.90
20946;DHT22;10632;51.276;7.116;2024-02-23T10:37:31;6.40;99.90
20946;DHT22;10632;51.276;7.116;2024-02-23T10:40:00;6.50;99.90
20946;DHT22;10632;51.276;7.116;2024-02-23T10:42:34;6.60;99.90
20946;DHT22;10632;51.276;7.116;2024-02-23T10:45:06;6.70;99.90
20946;DHT22;10632;51.276;7.116;2024-02-23T10:47:34;6.90;99.90
20946;DHT22;10632;51.276;7.116;2024-02-23T10:50:02;7.10;99.90
20946;DHT22;10632;51.276;7.116;2024-02-23T10:52:32;7.10;99.90
20946;DHT22;10632;51.276;7.116;2024-02-23T10:55:00;7.10;99.90
20946;DHT22;10632;51.276;7.116;2024-02-23T10:57:30;7.10;99.90
20946;DHT22;10632;51.276;7.116;2024-02-23T10:59:58;7.10;99.90
20946;DHT22;10632;51.276;7.116;2024-02-23T11:02:27;7.10;99.90
20946;DHT22;10632;51.276;7.116;2024-02-23T11:04:56;7.30;99.90
20946;DHT22;10632;51.276;7.116;2024-02-23T11:07:31;9.00;99.90
20946;DHT22;10632;51.276;7.116;2024-02-23T11:09:59;8.90;99.90
20946;DHT22;10632;51.276;7.116;2024-02-23T11:12:30;8.50;99.90
20946;DHT22;10632;51.276;7.116;2024-02-23T11:14:57;7.90;99.90
20946;DHT22;10632;51.276;7.116;2024-02-23T11:17:27;7.60;99.90
20946;DHT22;10632;51.276;7.116;2024-02-23T11:19:55;7.30;99.90
20946;DHT22;10632;51.276;7.116;2024-02-23T11:22:33;7.10;99.90
20946;DHT22;10632;51.276;7.116;2024-02-23T11:25:03;7.00;99.90
20946;DHT22;10632;51.276;7.116;2024-02-23T11:27:31;7.00;99.90
20946;DHT22;10632;51.276;7.116;2024-02-23T11:30:03;6.90;99.90
20946;DHT22;10632;51.276;7.116;2024-02-23T11:32:43;6.90;99.90
20946;DHT22;10632;51.276;7.116;2024-02-23T11:35:13;6.90;99.90
20946;DHT22;10632;51.276;7.116;2024-02-23T11:37:49;6.90;99.90
20946;DHT22;10632;51.276;7.116;2024-02-23T11:40:22;6.80;99.90
20946;DHT22;10632;51.276;7.116;2024-02-23T11:42:51;6.80;99.90
20946;DHT22;10632;51.276;7.116;2024-02-23T11:45:18;6.80;99.90
20946;DHT22;10632;51.276;7.116;2024-02-23T11:47:46;6.80;99.90
20946;DHT22;10632;51.276;7.116;2024-02-23T11:50:13;6.80;99.90
20946;DHT22;10632;51.276;7.116;2024-02-23T11:52:41;6.80;99.90
20946;DHT22;10632;51.276;7.116;2024-02-23T11:55:09;6.70;99.90
20946;DHT22;10632;51.276;7.116;2024-02-23T11:57:38;6.70;99.90
20946;DHT22;10632;51.276;7.116;2024-02-23T12:00:06;6.70;99.90
20946;DHT22;10632;51.276;7.116;2024-02-23T12:02:35;6.70;99.90
20946;DHT22;10632;51.276;7.116;2024-02-23T12:05:05;6.70;99.90
20946;DHT22;10632;51.276;7.116;2024-02-23T12:07:33;6.70;99.90
20946;DHT22;10632;51.276;7.116;2024-02-23T12:10:04;6.70;99.90
20946;DHT22;10632;51.276;7.116;2024-02-23T12:12:33;6.80;99.90
20946;DHT22;10632;51.276;7.116;2024-02-23T12:15:00;6.80;99.90
20946;DHT22;10632;51.276;7.116;2024-02-23T12:17:27;6.80;99.90
20946;DHT22;10632;51.276;7.116;2024-02-23T12:20:00;6.80;99.90
20946;DHT22;10632;51.276;7.116;2024-02-23T12:22:27;6.90;99.90
20946;DHT22;10632;51.276;7.116;2024-02-23T12:24:57;6.90;99.90
20946;DHT22;10632;51.276;7.116;2024-02-23T12:27:24;6.80;99.90
20946;DHT22;10632;51.276;7.116;2024-02-23T12:29:54;6.80;99.90
20946;DHT22;10632;51.276;7.116;2024-02-23T12:32:21;6.80;99.90
20946;DHT22;10632;51.276;7.116;2024-02-23T12:34:48;6.80;99.90
20946;DHT22;10632;51.276;7.116;2024-02-23T12:37:15;6.80;99.90
20946;DHT22;10632;51.276;7.116;2024-02-23T12:39:42;6.90;99.90
20946;DHT22;10632;51.276;7.116;2024-02-23T12:42:10;6.90;99.90
20946;DHT22;10632;51.276;7.116;2024-02-23T12:44:43;7.00;99.90
20946;DHT22;10632;51.276;7.116;2024-02-23T12:47:12;7.00;99.90
20946;DHT22;10632;51.276;7.116;2024-02-23T12:49:39;7.00;99.90
20946;DHT22;10632;51.276;7.116;2024-02-23T12:52:06;7.00;99.90
20946;DHT22;10632;51.276;7.116;2024-02-23T12:54:33;7.00;99.90
20946;DHT22;10632;51.276;7.116;2024-02-23T12:57:00;6.90;99.90
20946;DHT22;10632;51.276;7.116;2024-02-23T12:59:27;6.90;99.90
20946;DHT22;10632;51.276;7.116;2024-02-23T13:01:54;6.90;99.90
20946;DHT22;10632;51.276;7.116;2024-02-23T13:04:22;6.90;99.90
20946;DHT22;10632;51.276;7.116;2024-02-23T13:06:49;6.90;99.90
20946;DHT22;10632;51.276;7.116;2024-02-23T13:09:19;7.00;99.90
20946;DHT22;10632;51.276;7.116;2024-02-23T13:11:46;7.10;99.90
20946;DHT22;10632;51.276;7.116;2024-02-23T13:14:13;7.10;99.90
20946;DHT22;10632;51.276;7.116;2024-02-23T13:16:41;7.10;99.90
20946;DHT22;10632;51.276;7.116;2024-02-23T13:19:08;7.10;99.90
20946;DHT22;10632;51.276;7.116;2024-02-23T13:21:37;7.20;99.90
20946;DHT22;10632;51.276;7.116;2024-02-23T13:24:04;7.10;99.90
20946;DHT22;10632;51.276;7.116;2024-02-23T13:26:31;7.10;99.90
20946;DHT22;10632;51.276;7.116;2024-02-23T13:29:00;7.10;99.90
20946;DHT22;10632;51.276;7.116;2024-02-23T13:31:30;7.10;99.90
20946;DHT22;10632;51.276;7.116;2024-02-23T13:33:57;7.20;99.90
20946;DHT22;10632;51.276;7.116;2024-02-23T13:36:24;7.30;99.90
20946;DHT22;10632;51.276;7.116;2024-02-23T13:38:52;7.40;99.90
20946;DHT22;10632;51.276;7.116;2024-02-23T13:41:21;7.50;99.90
20946;DHT22;10632;51.276;7.116;2024-02-23T13:43:48;7.50;99.90
20946;DHT22;10632;51.276;7.116;2024-02-23T13:46:17;7.50;99.90
20946;DHT22;10632;51.276;7.116;2024-02-23T13:48:44;7.60;99.90
20946;DHT22;10632;51.276;7.116;2024-02-23T13:51:11;7.80;99.90
20946;DHT22;10632;51.276;7.116;2024-02-23T13:53:38;7.80;99.90
20946;DHT22;10632;51.276;7.116;2024-02-23T13:56:07;7.80;99.90
20946;DHT22;10632;51.276;7.116;2024-02-23T13:58:36;7.80;99.90
20946;DHT22;10632;51.276;7.116;2024-02-23T14:01:03;7.70;99.90
20946;DHT22;10632;51.276;7.116;2024-02-23T14:03:32;7.70;99.90
20946;DHT22;10632;51.276;7.116;2024-02-23T14:05:59;7.60;99.90
20946;DHT22;10632;51.276;7.116;2024-02-23T14:08:28;7.60;99.90
20946;DHT22;10632;51.276;7.116;2024-02-23T14:10:58;7.60;99.90
20946;DHT22;10632;51.276;7.116;2024-02-23T14:13:26;7.60;99.90
20946;DHT22;10632;51.276;7.116;2024-02-23T14:15:54;7.70;99.90
20946;DHT22;10632;51.276;7.116;2024-02-23T14:18:21;7.70;99.90
20946;DHT22;10632;51.276;7.116;2024-02-23T14:20:48;7.70;99.90
20946;DHT22;10632;51.276;7.116;2024-02-23T14:23:15;7.70;99.90
20946;DHT22;10632;51.276;7.116;2024-02-23T14:25:45;7.60;99.90
20946;DHT22;10632;51.276;7.116;2024-02-23T14:28:12;7.70;99.90
20946;DHT22;10632;51.276;7.116;2024-02-23T14:30:41;7.60;99.90
20946;DHT22;10632;51.276;7.116;2024-02-23T14:33:08;7.70;99.90
20946;DHT22;10632;51.276;7.116;2024-02-23T14:35:35;7.60;99.90
20946;DHT22;10632;51.276;7.116;2024-02-23T14:38:02;7.50;99.90
20946;DHT22;10632;51.276;7.116;2024-02-23T14:40:29;7.50;99.90
20946;DHT22;10632;51.276;7.116;2024-02-23T14:42:56;7.50;99.90
20946;DHT22;10632;51.276;7.116;2024-02-23T14:45:24;7.50;99.90
20946;DHT22;10632;51.276;7.116;2024-02-23T14:47:54;7.50;99.90
20946;DHT22;10632;51.276;7.116;2024-02-23T14:50:21;7.50;99.90
20946;DHT22;10632;51.276;7.116;2024-02-23T14:52:48;7.50;99.90
20946;DHT22;10632;51.276;7.116;2024-02-23T14:55:16;7.60;99.90
20946;DHT22;10632;51.276;7.116;2024-02-23T14:57:46;7.60;99.90
20946;DHT22;10632;51.276;7.116;2024-02-23T15:00:16;7.60;99.90
20946;DHT22;10632;51.276;7.116;2024-02-23T15:02:44;7.60;99.90
20946;DHT22;10632;51.276;7.116;2024-02-23T15:05:12;7.60;99.90
20946;DHT22;10632;51.276;7.116;2024-02-23T15:07:39;7.50;99.90
20946;DHT22;10632;51.276;7.116;2024-02-23T15:10:07;7.50;99.90
20946;DHT22;10632;51.276;7.116;2024-02-23T15:12:35;7.50;99.90
20946;DHT22;10632;51.276;7.116;2024-02-23T15:15:02;7.50;99.90
20946;DHT22;10632;51.276;7.116;2024-02-23T15:17:29;7.50;99.90
20946;DHT22;10632;51.276;7.116;2024-02-23T15:19:56;7.50;99.90
20946;DHT22;10632;51.276;7.116;2024-02-23T15:22:25;7.40;99.90
20946;DHT22;10632;51.276;7.116;2024-02-23T15:24:52;7.40;99.90
20946;DHT22;10632;51.276;7.116;2024-02-23T15:27:19;7.40;99.90
20946;DHT22;10632;51.276;7.116;2024-02-23T15:29:49;7.30;99.90
20946;DHT22;10632;51.276;7.116;2024-02-23T15:32:16;7.30;99.90
20946;DHT22;10632;51.276;7.116;2024-02-23T15:34:43;7.20;99.90
20946;DHT22;10632;51.276;7.116;2024-02-23T15:37:10;7.20;99.90
20946;DHT22;10632;51.276;7.116;2024-02-23T15:39:39;7.20;99.90
20946;DHT22;10632;51.276;7.116;2024-02-23T15:42:06;7.20;99.90
20946;DHT22;10632;51.276;7.116;2024-02-23T15:44:33;7.20;99.90
20946;DHT22;10632;51.276;7.116;2024-02-23T15:47:00;7.20;99.90
20946;DHT22;10632;51.276;7.116;2024-02-23T15:49:27;7.20;99.90
20946;DHT22;10632;51.276;7.116;2024-02-23T15:51:54;7.20;99.90
20946;DHT22;10632;51.276;7.116;2024-02-23T15:54:21;7.20;99.90
20946;DHT22;10632;51.276;7.116;2024-02-23T15:56:49;7.10;99.90
20946;DHT22;10632;51.276;7.116;2024-02-23T15:59:16;7.20;99.90
20946;DHT22;10632;51.276;7.116;2024-02-23T16:01:43;7.20;99.90
20946;DHT22;10632;51.276;7.116;2024-02-23T16:04:10;7.20;99.90